Time;durP1;ratioP1;P1;durP2;ratioP2;P2;SDS_P1;SDS_P2;PMS_P1;PMS_P2;Temp;Humidity;BMP_temperature;BMP_pressure;BME280_temperature;BME280_humidity;BME280_pressure;Samples;Min_cycle;Max_cycle;Signal;HPM_P1;HPM_P2
2022/07/26 00:01:06;;;;;;;12.95;2.28;;;;;;;18.37;89.93;101417.00;5073079;28;20442;-67
2022/07/26 00:03:32;;;;;;;6.30;2.10;;;;;;;18.36;88.71;101423.41;5072925;28;20507;-68
2022/07/26 00:05:58;;;;;;;16.33;3.63;;;;;;;18.31;88.84;101423.94;5073189;28;20024;-68
2022/07/26 00:08:24;;;;;;;11.10;2.15;;;;;;;18.29;88.59;101423.28;5072892;28;20020;-69
2022/07/26 00:10:50;;;;;;;14.75;2.28;;;;;;;18.27;87.29;101419.06;5072791;28;20484;-68
2022/07/26 00:13:18;;;;;;;7.22;2.08;;;;;;;18.25;86.33;101432.72;5072367;28;20113;-68
2022/07/26 00:15:45;;;;;;;10.10;1.65;;;;;;;18.23;86.37;101431.25;5073388;28;20031;-68
2022/07/26 00:18:11;;;;;;;8.35;1.90;;;;;;;18.20;85.21;101435.09;5072866;28;20111;-68
2022/07/26 00:20:36;;;;;;;6.97;2.10;;;;;;;18.20;84.68;101443.19;5072715;28;20113;-68
2022/07/26 00:23:02;;;;;;;9.13;1.80;;;;;;;18.17;83.99;101438.16;5071565;28;20446;-68
2022/07/26 00:25:28;;;;;;;6.30;1.75;;;;;;;18.15;83.94;101446.41;5072693;28;20373;-68
2022/07/26 00:27:53;;;;;;;7.00;2.25;;;;;;;18.11;84.07;101441.56;5072628;28;20048;-68
2022/07/26 00:30:19;;;;;;;6.90;2.10;;;;;;;18.10;83.08;101445.25;5072805;28;20391;-68
2022/07/26 00:32:44;;;;;;;8.30;1.70;;;;;;;18.07;82.41;101450.97;5072920;28;20354;-68
2022/07/26 00:35:10;;;;;;;7.32;2.00;;;;;;;18.02;81.70;101448.81;5072494;28;20024;-68
2022/07/26 00:37:36;;;;;;;10.02;1.95;;;;;;;18.01;81.14;101451.69;5072532;28;20028;-67
2022/07/26 00:40:03;;;;;;;8.45;2.53;;;;;;;17.97;81.42;101446.66;5072614;28;20029;-68
2022/07/26 00:42:29;;;;;;;8.93;1.80;;;;;;;17.95;81.28;101442.44;5072490;28;20036;-68
2022/07/26 00:44:54;;;;;;;4.28;1.73;;;;;;;17.90;82.00;101445.66;5072707;28;20347;-68
2022/07/26 00:47:20;;;;;;;8.02;1.65;;;;;;;17.89;82.47;101451.19;5072682;28;20060;-68
2022/07/26 00:49:45;;;;;;;7.00;2.08;;;;;;;17.84;83.48;101446.31;5071066;28;20450;-68
2022/07/26 00:52:11;;;;;;;9.00;1.55;;;;;;;17.82;84.65;101447.50;5072471;28;20048;-67
2022/07/26 00:54:38;;;;;;;6.70;1.80;;;;;;;17.75;85.36;101453.56;5074589;28;20024;-69
2022/07/26 00:57:04;;;;;;;5.78;1.95;;;;;;;17.71;86.23;101446.00;5076144;28;20462;-68
2022/07/26 00:59:30;;;;;;;6.65;1.73;;;;;;;17.68;86.43;101457.94;5076355;28;20028;-69
2022/07/26 01:01:55;;;;;;;5.20;1.67;;;;;;;17.64;87.05;101464.66;5075883;28;20036;-67
2022/07/26 01:04:21;;;;;;;10.82;1.92;;;;;;;17.58;87.70;101466.19;5075596;28;20024;-68
2022/07/26 01:06:48;;;;;;;11.15;1.80;;;;;;;17.53;88.01;101468.56;5076189;28;20029;-68
2022/07/26 01:09:13;;;;;;;7.45;1.92;;;;;;;17.47;88.68;101466.56;5075134;28;20047;-68
2022/07/26 01:11:39;;;;;;;13.15;2.33;;;;;;;17.42;88.77;101468.88;5075440;28;20458;-68
2022/07/26 01:14:04;;;;;;;9.50;1.80;;;;;;;17.37;89.29;101473.94;5075881;28;20048;-68
2022/07/26 01:16:30;;;;;;;8.85;1.95;;;;;;;17.30;89.79;101472.94;5075623;28;20028;-68
2022/07/26 01:18:55;;;;;;;8.20;2.00;;;;;;;17.24;90.82;101475.31;5075248;28;20032;-67
2022/07/26 01:21:22;;;;;;;5.25;1.85;;;;;;;17.18;90.98;101469.72;5075574;28;20032;-66
2022/07/26 01:23:47;;;;;;;8.38;2.28;;;;;;;17.13;90.89;101469.41;5075427;28;20032;-67
2022/07/26 01:26:12;;;;;;;15.32;2.05;;;;;;;17.08;90.06;101476.13;5075738;28;20029;-68
2022/07/26 01:28:40;;;;;;;5.97;1.60;;;;;;;17.03;90.36;101470.41;5075331;28;20028;-69
2022/07/26 01:31:06;;;;;;;9.73;1.85;;;;;;;16.97;90.94;101470.22;5075882;28;20031;-68
2022/07/26 01:33:33;;;;;;;5.07;1.65;;;;;;;16.90;91.36;101472.75;5075280;28;20085;-67
2022/07/26 01:35:58;;;;;;;7.53;1.90;;;;;;;16.85;92.36;101477.72;5075076;28;20028;-67
2022/07/26 01:38:24;;;;;;;10.65;2.22;;;;;;;16.82;93.62;101480.75;5075223;28;20110;-68
2022/07/26 01:40:50;;;;;;;10.23;2.22;;;;;;;16.81;93.93;101481.75;5075366;28;20093;-67
2022/07/26 01:43:15;;;;;;;11.52;2.70;;;;;;;16.82;93.92;101483.44;5074290;28;20506;-67
2022/07/26 01:45:41;;;;;;;11.95;2.03;;;;;;;16.85;93.06;101488.47;5073492;28;20037;-69
2022/07/26 01:48:07;;;;;;;6.00;1.90;;;;;;;16.85;92.80;101485.78;5074990;28;20500;-67
2022/07/26 01:50:33;;;;;;;10.18;1.80;;;;;;;16.86;93.17;101482.09;5075208;28;20090;-67
2022/07/26 01:52:58;;;;;;;7.63;1.98;;;;;;;16.86;93.48;101482.94;5073845;28;20020;-68
2022/07/26 01:55:23;;;;;;;10.20;2.28;;;;;;;16.85;94.19;101483.09;5074910;28;20032;-68
2022/07/26 01:57:49;;;;;;;9.73;2.05;;;;;;;16.84;94.40;101490.34;5074823;28;20035;-67
2022/07/26 02:00:14;;;;;;;11.35;2.35;;;;;;;16.82;94.58;101492.31;5074768;28;20033;-68
2022/07/26 02:02:40;;;;;;;10.80;2.42;;;;;;;16.81;95.17;101487.13;5074969;28;20446;-67
2022/07/26 02:05:06;;;;;;;13.20;2.13;;;;;;;16.80;95.68;101493.50;5073986;28;20028;-67
2022/07/26 02:07:41;;;;;;;7.13;2.00;;;;;;;16.74;95.69;101492.31;5074520;28;20043;-68
2022/07/26 02:10:08;;;;;;;12.95;2.10;;;;;;;16.69;96.20;101487.44;5075382;28;20024;-68
2022/07/26 02:12:34;;;;;;;6.22;2.13;;;;;;;16.63;96.58;101497.97;5074560;28;20044;-68
2022/07/26 02:14:59;;;;;;;7.95;1.70;;;;;;;16.56;97.52;101489.75;5074431;28;20044;-67
2022/07/26 02:17:25;;;;;;;11.55;1.73;;;;;;;16.48;97.95;101495.94;5074015;28;20028;-67
2022/07/26 02:19:51;;;;;;;8.52;1.90;;;;;;;16.40;98.85;101493.19;5074354;28;20470;-68
2022/07/26 02:22:18;;;;;;;4.40;1.40;;;;;;;16.36;99.07;101499.88;5072958;28;20028;-67
2022/07/26 02:24:44;;;;;;;11.48;1.85;;;;;;;16.29;99.53;101498.88;5073271;28;20449;-68
2022/07/26 02:27:09;;;;;;;9.45;1.90;;;;;;;16.22;100.00;101501.34;5074690;28;20035;-67
2022/07/26 02:29:35;;;;;;;6.75;1.75;;;;;;;16.16;100.00;101496.63;5074193;28;20025;-68
2022/07/26 02:32:00;;;;;;;4.20;1.60;;;;;;;16.11;100.00;101507.84;5056171;28;20140;-67
2022/07/26 02:34:26;;;;;;;8.68;1.60;;;;;;;16.08;100.00;101507.31;5074051;28;20029;-67
2022/07/26 02:36:51;;;;;;;11.68;2.15;;;;;;;16.07;100.00;101509.16;5073885;28;20181;-68
2022/07/26 02:39:17;;;;;;;4.45;1.30;;;;;;;16.08;100.00;101507.31;5073936;28;20028;-68
2022/07/26 02:41:43;;;;;;;3.90;1.23;;;;;;;16.07;100.00;101508.31;5073989;28;20028;-67
2022/07/26 02:44:08;;;;;;;4.40;1.45;;;;;;;16.04;100.00;101504.09;5074005;28;20350;-68
2022/07/26 02:46:34;;;;;;;4.90;1.80;;;;;;;16.02;100.00;101503.44;5072607;28;20032;-68
2022/07/26 02:49:00;;;;;;;11.27;2.67;;;;;;;15.97;100.00;101505.72;5073324;28;20043;-67
2022/07/26 02:51:26;;;;;;;6.97;1.73;;;;;;;15.93;100.00;101507.03;5074254;28;20028;-67
2022/07/26 02:53:52;;;;;;;3.88;1.33;;;;;;;15.89;100.00;101505.69;5073719;28;20040;-68
2022/07/26 02:56:19;;;;;;;6.78;1.88;;;;;;;15.86;100.00;101514.91;5072256;28;20066;-67
2022/07/26 02:58:44;;;;;;;8.50;1.40;;;;;;;15.84;100.00;101519.59;5073568;28;20028;-68
2022/07/26 03:01:10;;;;;;;6.10;1.70;;;;;;;15.83;100.00;101518.72;5074012;28;20035;-67
2022/07/26 03:03:35;;;;;;;7.60;1.38;;;;;;;15.84;100.00;101523.09;5073492;28;20024;-68
2022/07/26 03:06:00;;;;;;;8.20;2.17;;;;;;;15.80;100.00;101526.25;5072136;28;20028;-67
2022/07/26 03:08:26;;;;;;;8.50;1.50;;;;;;;15.76;100.00;101523.00;5073079;28;20105;-68
2022/07/26 03:10:51;;;;;;;3.90;1.52;;;;;;;15.74;100.00;101521.50;5073374;28;20029;-69
2022/07/26 03:13:16;;;;;;;7.05;1.60;;;;;;;15.75;100.00;101518.66;5073209;28;20054;-69
2022/07/26 03:15:42;;;;;;;7.95;1.90;;;;;;;15.80;100.00;101526.25;5073403;28;20199;-67
2022/07/26 03:18:07;;;;;;;13.18;2.33;;;;;;;15.79;100.00;101524.56;5073433;28;20032;-67
2022/07/26 03:20:32;;;;;;;6.97;1.80;;;;;;;15.78;100.00;101525.56;5073735;28;20031;-68
2022/07/26 03:22:58;;;;;;;9.35;1.63;;;;;;;15.77;100.00;101532.75;5073217;28;20149;-67
2022/07/26 03:25:23;;;;;;;11.23;1.65;;;;;;;15.78;100.00;101523.72;5071756;28;20081;-68
2022/07/26 03:27:48;;;;;;;5.07;1.60;;;;;;;15.81;100.00;101528.78;5073196;28;20078;-68
2022/07/26 03:30:14;;;;;;;6.63;1.58;;;;;;;15.85;100.00;101526.63;5072771;28;20047;-68
2022/07/26 03:32:39;;;;;;;3.58;1.50;;;;;;;15.90;100.00;101531.50;5072748;28;20074;-67
2022/07/26 03:35:06;;;;;;;8.73;1.75;;;;;;;15.94;100.00;101528.34;5073391;28;20036;-67
2022/07/26 03:37:32;;;;;;;3.78;1.65;;;;;;;15.97;100.00;101536.13;5072598;28;20028;-68
2022/07/26 03:39:57;;;;;;;6.15;1.88;;;;;;;16.02;100.00;101536.47;5072973;28;20020;-68
2022/07/26 03:42:22;;;;;;;6.75;1.50;;;;;;;16.07;100.00;101535.16;5071873;28;20036;-68
2022/07/26 03:44:48;;;;;;;6.07;1.80;;;;;;;16.09;100.00;101544.72;5073054;28;20025;-68
2022/07/26 03:47:13;;;;;;;3.53;1.60;;;;;;;16.03;100.00;101548.91;5072624;28;20473;-68
2022/07/26 03:49:38;;;;;;;4.53;1.83;;;;;;;15.94;100.00;101540.94;5073272;28;20025;-68
2022/07/26 03:52:04;;;;;;;5.63;2.00;;;;;;;15.90;100.00;101555.66;5072958;28;20028;-68
2022/07/26 03:54:29;;;;;;;5.35;1.60;;;;;;;15.83;100.00;101550.94;5073253;28;20021;-67
2022/07/26 03:56:55;;;;;;;6.32;1.58;;;;;;;15.77;100.00;101546.16;5072660;28;20175;-68
2022/07/26 03:59:22;;;;;;;5.82;1.65;;;;;;;15.71;100.00;101536.06;5072941;28;20484;-68
2022/07/26 04:01:48;;;;;;;8.30;2.00;;;;;;;15.67;100.00;101540.91;5073448;28;20082;-67
2022/07/26 04:04:16;;;;;;;7.90;1.98;;;;;;;15.67;100.00;101546.25;5072801;28;20056;-67
2022/07/26 04:06:44;;;;;;;3.55;1.90;;;;;;;15.69;100.00;101540.75;5072829;28;20081;-68
2022/07/26 04:09:09;;;;;;;7.60;1.98;;;;;;;15.75;100.00;101550.84;5072654;28;20082;-68
2022/07/26 04:11:35;;;;;;;6.15;2.28;;;;;;;15.81;100.00;101550.25;5072433;28;20457;-67
2022/07/26 04:14:00;;;;;;;5.60;1.92;;;;;;;15.88;100.00;101541.56;5072293;28;20040;-69
2022/07/26 04:16:26;;;;;;;5.30;1.90;;;;;;;15.94;100.00;101549.00;5072956;28;20024;-68
2022/07/26 04:18:52;;;;;;;6.00;1.70;;;;;;;16.01;100.00;101556.25;5072656;28;20085;-67
2022/07/26 04:21:17;;;;;;;7.05;2.05;;;;;;;16.10;100.00;101557.16;5072395;28;20462;-67
2022/07/26 04:23:43;;;;;;;7.93;1.83;;;;;;;16.16;100.00;101563.72;5072670;28;20035;-67
2022/07/26 04:26:08;;;;;;;13.75;2.15;;;;;;;16.09;100.00;101560.00;5072550;28;20407;-68
2022/07/26 04:28:34;;;;;;;7.07;2.30;;;;;;;16.01;100.00;101561.63;5072631;28;20407;-67
2022/07/26 04:31:00;;;;;;;9.18;2.25;;;;;;;15.93;100.00;101575.00;5076343;28;20404;-68
2022/07/26 04:33:25;;;;;;;4.88;1.70;;;;;;;15.84;100.00;101575.94;5076296;28;20024;-68
2022/07/26 04:35:52;;;;;;;5.00;1.30;;;;;;;15.68;100.00;101590.03;5076247;28;20107;-68
2022/07/26 04:38:17;;;;;;;8.18;2.20;;;;;;;15.49;100.00;101583.78;5074998;28;20043;-68
2022/07/26 04:40:43;;;;;;;5.03;1.60;;;;;;;15.34;100.00;101583.50;5076538;28;20025;-67
2022/07/26 04:43:09;;;;;;;5.72;1.67;;;;;;;15.26;100.00;101585.28;5075846;28;20099;-68
2022/07/26 04:45:34;;;;;;;7.15;1.60;;;;;;;15.16;100.00;101588.81;5076143;28;20035;-67
2022/07/26 04:48:00;;;;;;;9.68;2.00;;;;;;;15.07;100.00;101600.47;5076413;28;20025;-68
2022/07/26 04:50:26;;;;;;;9.10;1.80;;;;;;;15.02;100.00;101604.56;5075858;28;20024;-67
2022/07/26 04:52:52;;;;;;;6.88;1.77;;;;;;;14.94;100.00;101602.66;5076791;28;20034;-68
2022/07/26 04:55:18;;;;;;;6.18;1.63;;;;;;;14.91;100.00;101606.50;5075975;28;20370;-68
2022/07/26 04:57:44;;;;;;;6.82;1.55;;;;;;;14.81;100.00;101608.38;5076010;28;20117;-68
2022/07/26 05:00:12;;;;;;;4.93;1.50;;;;;;;14.70;100.00;101609.38;5076120;28;20024;-67
2022/07/26 05:02:38;;;;;;;7.72;1.77;;;;;;;14.67;100.00;101617.72;5075924;28;20025;-69
2022/07/26 05:05:06;;;;;;;11.23;2.72;;;;;;;14.70;100.00;101619.25;5076166;28;20496;-68
2022/07/26 05:07:49;;;;;;;9.15;2.97;;;;;;;14.71;100.00;101621.78;5074629;28;20028;-67
2022/07/26 05:10:15;;;;;;;6.43;1.70;;;;;;;14.71;100.00;101629.00;5075482;28;20551;-68
2022/07/26 05:12:41;;;;;;;8.20;1.90;;;;;;;14.72;100.00;101631.53;5075852;28;20043;-67
2022/07/26 05:15:07;;;;;;;7.93;1.85;;;;;;;14.74;100.00;101626.84;5076249;28;20029;-68
2022/07/26 05:17:36;;;;;;;8.10;1.92;;;;;;;14.78;100.00;101638.97;5074883;28;20025;-68
2022/07/26 05:20:01;;;;;;;8.18;2.13;;;;;;;14.79;100.00;101635.31;5075581;28;20449;-68
2022/07/26 05:22:26;;;;;;;6.03;1.85;;;;;;;14.79;100.00;101639.81;5075486;28;20029;-68
2022/07/26 05:24:51;;;;;;;11.57;2.75;;;;;;;14.80;100.00;101634.28;5076057;28;20115;-68
2022/07/26 05:27:17;;;;;;;9.95;2.85;;;;;;;14.87;100.00;101647.09;5075022;28;20043;-68
2022/07/26 05:29:42;;;;;;;11.65;2.40;;;;;;;14.94;100.00;101643.72;5075407;28;20024;-68
2022/07/26 05:32:07;;;;;;;7.72;2.42;;;;;;;14.99;100.00;101654.81;5075411;28;20035;-69
2022/07/26 05:34:33;;;;;;;9.63;1.90;;;;;;;15.03;100.00;101652.66;5075206;28;20025;-68
2022/07/26 05:36:58;;;;;;;6.63;1.90;;;;;;;15.05;100.00;101656.06;5075236;28;20115;-69
2022/07/26 05:39:24;;;;;;;8.95;2.05;;;;;;;15.11;100.00;101657.31;5075463;28;20024;-68
2022/07/26 05:41:49;;;;;;;11.93;2.03;;;;;;;15.13;100.00;101652.63;5075420;28;20032;-69
2022/07/26 05:44:14;;;;;;;7.57;1.77;;;;;;;15.12;100.00;101657.16;5073898;28;20036;-69
2022/07/26 05:46:40;;;;;;;11.35;2.28;;;;;;;15.13;100.00;101652.63;5075401;28;20118;-69
2022/07/26 05:49:06;;;;;;;5.65;1.83;;;;;;;15.17;100.00;101654.03;5073870;28;20021;-69
2022/07/26 05:51:32;;;;;;;10.73;2.30;;;;;;;15.20;100.00;101658.22;5074963;28;20158;-69
2022/07/26 05:53:57;;;;;;;10.82;1.67;;;;;;;15.18;100.00;101668.25;5074599;28;20493;-68
2022/07/26 05:56:23;;;;;;;10.65;2.05;;;;;;;15.16;100.00;101674.59;5074533;28;20024;-68
2022/07/26 05:58:49;;;;;;;6.22;1.65;;;;;;;15.19;100.00;101672.63;5074694;28;20021;-69
2022/07/26 06:01:14;;;;;;;12.57;2.65;;;;;;;15.22;100.00;101677.69;5075056;28;20024;-69
2022/07/26 06:03:39;;;;;;;14.02;2.25;;;;;;;15.29;100.00;101678.78;5075196;28;20423;-69
2022/07/26 06:06:05;;;;;;;10.85;1.88;;;;;;;15.36;100.00;101679.03;5073357;28;20537;-68
2022/07/26 06:08:31;;;;;;;7.07;2.10;;;;;;;15.46;100.00;101687.84;5074681;28;20035;-68
2022/07/26 06:10:56;;;;;;;13.80;2.03;;;;;;;15.50;100.00;101692.75;5074641;28;20089;-69
2022/07/26 06:13:22;;;;;;;11.60;1.90;;;;;;;15.54;100.00;101687.09;5073115;28;20101;-69
2022/07/26 06:15:48;;;;;;;14.30;2.47;;;;;;;15.58;100.00;101697.38;5074521;28;20093;-69
2022/07/26 06:18:14;;;;;;;16.08;1.90;;;;;;;15.62;100.00;101698.75;5074479;28;20021;-69
2022/07/26 06:20:41;;;;;;;13.55;1.90;;;;;;;15.61;100.00;101704.28;5074367;28;20099;-69
2022/07/26 06:23:07;;;;;;;6.70;1.45;;;;;;;15.54;100.00;101706.75;5074249;28;20117;-68
2022/07/26 06:25:33;;;;;;;7.05;1.55;;;;;;;15.47;100.00;101711.84;5074251;28;20529;-68
2022/07/26 06:27:58;;;;;;;10.27;1.67;;;;;;;15.47;100.00;101717.22;5074213;28;20021;-69
2022/07/26 06:30:23;;;;;;;4.70;1.70;;;;;;;15.55;100.00;101724.50;5074160;28;20109;-70
2022/07/26 06:32:49;;;;;;;6.40;1.30;;;;;;;15.64;100.00;101723.59;5074179;28;20032;-68
2022/07/26 06:35:14;;;;;;;8.90;1.85;;;;;;;15.78;100.00;101724.97;5073742;28;20362;-69
2022/07/26 06:37:41;;;;;;;10.13;1.55;;;;;;;15.83;100.00;101725.34;5074087;28;20354;-69
2022/07/26 06:40:09;;;;;;;6.68;1.60;;;;;;;15.94;100.00;101731.47;5073416;28;20028;-69
2022/07/26 06:42:34;;;;;;;9.27;1.75;;;;;;;16.04;100.00;101727.72;5073888;28;20028;-69
2022/07/26 06:45:00;;;;;;;9.25;1.40;;;;;;;16.11;100.00;101732.47;5073563;28;20091;-69
2022/07/26 06:47:26;;;;;;;6.32;1.45;;;;;;;16.18;100.00;101737.09;5073429;28;20032;-70
2022/07/26 06:49:52;;;;;;;6.15;1.45;;;;;;;16.19;100.00;101744.13;5073572;28;20033;-69
2022/07/26 06:52:17;;;;;;;8.63;1.60;;;;;;;16.14;100.00;101748.28;5073470;28;20036;-69
2022/07/26 06:54:43;;;;;;;3.88;0.93;;;;;;;16.01;100.00;101746.81;5073067;28;20035;-68
2022/07/26 06:57:09;;;;;;;8.32;1.38;;;;;;;15.91;100.00;101751.41;5073558;28;20433;-69
2022/07/26 06:59:34;;;;;;;7.45;1.88;;;;;;;15.94;100.00;101750.25;5073153;28;20111;-69
2022/07/26 07:02:00;;;;;;;4.45;1.30;;;;;;;15.98;100.00;101754.34;5073231;28;20037;-70
2022/07/26 07:04:30;;;;;;;6.90;1.15;;;;;;;16.18;100.00;101758.56;5073394;28;20458;-70
2022/07/26 07:07:01;;;;;;;5.55;1.25;;;;;;;16.35;100.00;101761.41;5073285;28;20035;-70
2022/07/26 07:09:26;;;;;;;7.43;1.08;;;;;;;16.56;100.00;101755.69;5073760;28;20064;-70
2022/07/26 07:11:52;;;;;;;6.95;1.35;;;;;;;16.82;100.00;101752.16;5073475;28;20064;-70
2022/07/26 07:14:17;;;;;;;7.45;1.45;;;;;;;17.02;100.00;101768.97;5073483;28;20466;-70
2022/07/26 07:16:42;;;;;;;6.80;1.45;;;;;;;17.23;100.00;101761.34;5073962;28;20024;-71
2022/07/26 07:19:08;;;;;;;4.55;1.20;;;;;;;17.42;100.00;101765.63;5073393;28;20433;-71
2022/07/26 07:21:33;;;;;;;6.00;1.38;;;;;;;17.53;100.00;101767.19;5055435;28;20036;-71
2022/07/26 07:23:59;;;;;;;6.07;1.27;;;;;;;17.50;100.00;101764.81;5073148;28;20351;-71
2022/07/26 07:26:25;;;;;;;6.65;1.30;;;;;;;17.61;100.00;101779.81;5073939;28;20025;-72
2022/07/26 07:28:50;;;;;;;7.35;1.92;;;;;;;17.67;100.00;101779.16;5073516;28;20040;-71
2022/07/26 07:31:16;;;;;;;3.90;1.50;;;;;;;17.80;100.00;101774.16;5073708;28;20032;-71
2022/07/26 07:33:41;;;;;;;5.97;1.25;;;;;;;17.93;100.00;101776.44;5072215;28;20448;-70
2022/07/26 07:36:07;;;;;;;5.05;1.15;;;;;;;17.95;100.00;101782.47;5073578;28;20025;-70
2022/07/26 07:38:32;;;;;;;8.30;1.42;;;;;;;17.75;99.63;101781.03;5073391;28;20021;-70
2022/07/26 07:40:57;;;;;;;10.20;1.40;;;;;;;17.61;100.00;101780.66;5072974;28;20031;-70
2022/07/26 07:43:23;;;;;;;6.30;1.15;;;;;;;17.43;100.00;101794.22;5073241;28;20032;-73
2022/07/26 07:45:48;;;;;;;5.28;1.30;;;;;;;17.39;100.00;101786.63;5073213;28;20036;-73
2022/07/26 07:48:13;;;;;;;5.40;1.30;;;;;;;17.40;99.52;101791.00;5072847;28;20029;-69
2022/07/26 07:50:39;;;;;;;8.50;1.58;;;;;;;17.41;100.00;101790.84;5073207;28;20035;-69
2022/07/26 07:53:04;;;;;;;6.97;1.02;;;;;;;17.63;100.00;101794.81;5073547;28;20075;-70
2022/07/26 07:55:29;;;;;;;9.70;1.60;;;;;;;17.84;100.00;101796.22;5072994;28;20419;-70
2022/07/26 07:57:55;;;;;;;9.18;1.80;;;;;;;18.24;100.00;101797.38;5073351;28;20446;-68
2022/07/26 08:00:20;;;;;;;7.72;1.20;;;;;;;18.73;99.88;101783.03;5073080;28;20565;-70
2022/07/26 08:02:46;;;;;;;3.10;0.93;;;;;;;19.10;94.54;101786.22;5073014;28;20028;-69
2022/07/26 08:05:12;;;;;;;7.75;1.95;;;;;;;19.38;90.84;101781.25;5077005;28;20334;-70
2022/07/26 08:07:38;;;;;;;7.32;1.10;;;;;;;19.67;88.94;101791.38;5076904;28;20036;-70
2022/07/26 08:10:04;;;;;;;4.72;1.83;;;;;;;20.05;86.76;101791.56;5076988;28;20032;-70
2022/07/26 08:12:29;;;;;;;4.53;1.42;;;;;;;20.32;81.88;101786.63;5077014;28;20062;-70
2022/07/26 08:14:55;;;;;;;5.88;1.02;;;;;;;20.14;78.78;101800.44;5077341;28;20412;-70
2022/07/26 08:17:20;;;;;;;5.38;1.00;;;;;;;19.70;77.73;101804.53;5076744;28;20040;-69
2022/07/26 08:19:45;;;;;;;5.13;0.93;;;;;;;19.30;81.28;101802.84;5075418;28;20028;-69
2022/07/26 08:22:11;;;;;;;7.25;1.10;;;;;;;19.07;81.66;101817.06;5076827;28;20070;-70
2022/07/26 08:24:36;;;;;;;6.60;1.52;;;;;;;18.99;82.41;101815.22;5076600;28;20041;-69
2022/07/26 08:27:03;;;;;;;8.98;1.25;;;;;;;19.00;82.44;101816.06;5077170;28;20446;-68
2022/07/26 08:29:28;;;;;;;6.03;1.33;;;;;;;19.13;82.85;101820.94;5076617;28;20035;-69
2022/07/26 08:31:54;;;;;;;7.68;1.15;;;;;;;19.36;82.43;101819.19;5076995;28;20025;-69
2022/07/26 08:34:20;;;;;;;10.57;1.20;;;;;;;19.44;77.51;101836.38;5076414;28;20466;-70
2022/07/26 08:36:46;;;;;;;5.13;1.27;;;;;;;19.15;80.77;101832.38;5076513;28;20032;-68
2022/07/26 08:39:11;;;;;;;11.55;1.30;;;;;;;18.93;80.83;101834.78;5076604;28;20086;-68
2022/07/26 08:41:39;;;;;;;9.35;1.58;;;;;;;18.81;84.59;101841.47;5076216;28;20024;-69
2022/07/26 08:44:06;;;;;;;9.48;1.63;;;;;;;18.76;84.39;101850.09;5077154;28;20111;-69
2022/07/26 08:46:37;;;;;;;7.15;2.03;;;;;;;18.78;86.14;101853.47;5076309;28;20029;-69
2022/07/26 08:49:05;;;;;;;8.65;1.52;;;;;;;18.84;84.93;101852.78;5076802;28;20438;-68
2022/07/26 08:51:32;;;;;;;6.30;1.33;;;;;;;19.00;83.10;101851.97;5076356;28;20031;-68
2022/07/26 08:53:59;;;;;;;6.78;1.38;;;;;;;19.01;79.79;101853.63;5076144;28;20146;-69
2022/07/26 08:56:24;;;;;;;4.47;1.20;;;;;;;19.00;82.72;101853.81;5057998;28;20029;-68
2022/07/26 08:58:50;;;;;;;8.27;1.60;;;;;;;19.22;80.78;101863.06;5075061;28;20025;-69
2022/07/26 09:01:16;;;;;;;9.65;1.80;;;;;;;19.66;77.45;101853.66;5075539;28;20032;-69
2022/07/26 09:03:43;;;;;;;6.45;1.30;;;;;;;19.89;73.86;101860.00;5075787;28;20036;-69
2022/07/26 09:06:21;;;;;;;5.82;1.48;;;;;;;19.78;73.98;101870.34;5075899;28;20107;-68
2022/07/26 09:08:49;;;;;;;8.35;1.48;;;;;;;19.63;74.60;101865.66;5075768;28;20373;-68
2022/07/26 09:11:30;;;;;;;6.90;1.42;;;;;;;19.50;75.65;101866.19;5075716;28;20082;-68
2022/07/26 09:14:05;;;;;;;3.90;1.25;;;;;;;19.28;73.85;101869.63;5074316;28;20128;-69
2022/07/26 09:16:30;;;;;;;8.40;1.50;;;;;;;19.25;74.07;101880.75;5074683;28;20016;-68
2022/07/26 09:19:28;;;;;;;5.18;1.08;;;;;;;19.13;73.47;101877.56;5074275;28;20029;-68
2022/07/26 09:21:56;;;;;;;6.60;1.20;;;;;;;18.98;74.53;101891.72;5062006;28;20119;-69
2022/07/26 09:24:29;;;;;;;4.28;1.42;;;;;;;19.00;75.37;101897.81;5074461;28;20079;-68
2022/07/26 09:26:55;;;;;;;6.90;1.58;;;;;;;19.08;75.78;101893.41;5074617;28;20028;-69
2022/07/26 09:29:21;;;;;;;6.20;1.05;;;;;;;19.12;75.09;101902.84;5074600;28;20043;-68
2022/07/26 09:31:46;;;;;;;10.20;1.50;;;;;;;19.24;75.03;101898.78;5074162;28;20032;-68
2022/07/26 09:34:22;;;;;;;4.57;1.25;;;;;;;19.51;74.97;101908.38;5074265;28;20025;-68
2022/07/26 09:36:53;;;;;;;6.53;1.52;;;;;;;19.69;72.34;101910.00;5073030;28;20025;-68
2022/07/26 09:39:18;;;;;;;8.70;1.48;;;;;;;19.41;72.47;101913.13;5074147;28;20024;-68
2022/07/26 09:41:44;;;;;;;7.45;1.52;;;;;;;19.39;72.90;101909.72;5074068;28;20024;-68
2022/07/26 09:44:22;;;;;;;5.20;1.65;;;;;;;19.28;73.27;101915.50;5074332;28;20036;-68
2022/07/26 09:46:57;;;;;;;7.28;1.63;;;;;;;19.09;72.43;101911.28;5072582;28;20372;-68
2022/07/26 09:49:24;;;;;;;9.15;1.55;;;;;;;18.99;73.87;101919.56;5073341;28;20369;-69
2022/07/26 09:51:51;;;;;;;3.65;1.13;;;;;;;19.10;74.04;101923.78;5073457;28;20024;-68
2022/07/26 09:54:27;;;;;;;7.78;1.40;;;;;;;18.96;75.77;101928.81;5074269;28;20060;-69
2022/07/26 09:56:53;;;;;;;4.88;1.17;;;;;;;18.96;75.06;101933.34;5074363;28;20025;-68
2022/07/26 09:59:20;;;;;;;5.10;1.25;;;;;;;19.15;76.04;101924.97;5073984;28;20079;-68
2022/07/26 10:01:46;;;;;;;7.57;1.05;;;;;;;19.21;72.83;101923.41;5074072;28;20051;-71
2022/07/26 10:04:12;;;;;;;5.60;1.48;;;;;;;19.55;71.07;101930.44;5073875;28;20024;-69
2022/07/26 10:06:38;;;;;;;9.93;1.20;;;;;;;19.73;70.12;101933.81;5073764;28;20028;-67
2022/07/26 10:09:05;;;;;;;5.97;1.30;;;;;;;19.89;68.61;101932.09;5073702;28;20516;-68
2022/07/26 10:11:49;;;;;;;5.75;1.25;;;;;;;20.06;68.60;101924.75;5073760;28;20025;-69
2022/07/26 10:14:45;;;;;;;5.28;1.50;;;;;;;20.25;67.86;101932.41;5035916;28;1098972;-68
2022/07/26 10:17:25;;;;;;;7.03;1.63;;;;;;;20.50;65.97;101929.59;5069457;28;20045;-69
2022/07/26 10:19:54;;;;;;;4.57;0.95;;;;;;;20.87;64.81;101925.31;5074464;28;20024;-70
2022/07/26 10:22:32;;;;;;;10.75;1.30;;;;;;;21.63;65.56;101916.31;5074252;28;20437;-68
2022/07/26 10:25:16;;;;;;;7.78;1.58;;;;;;;22.51;62.90;101928.09;5074503;28;20450;-69
2022/07/26 10:27:44;;;;;;;4.88;1.45;;;;;;;22.85;58.00;101931.97;5073878;28;20035;-69
2022/07/26 10:30:15;;;;;;;5.97;1.40;;;;;;;22.73;57.96;101938.13;5074180;28;20021;-69
2022/07/26 10:33:02;;;;;;;9.95;1.85;;;;;;;22.47;58.71;101939.53;5074190;28;20024;-68
2022/07/26 10:35:33;;;;;;;7.60;1.60;;;;;;;21.90;58.55;101946.50;5073849;28;20028;-68
2022/07/26 10:37:59;;;;;;;10.55;2.35;;;;;;;22.13;58.92;101949.09;5074596;28;20109;-68
2022/07/26 10:40:29;;;;;;;4.35;1.55;;;;;;;23.66;56.37;101943.50;5074341;28;20056;-68
2022/07/26 10:43:17;;;;;;;3.33;1.30;;;;;;;25.28;49.29;101941.91;5073834;28;20366;-69
2022/07/26 10:45:43;;;;;;;5.65;1.50;;;;;;;25.89;47.51;101942.66;5074038;28;20025;-68
2022/07/26 10:48:19;;;;;;;8.70;2.20;;;;;;;25.12;48.06;101942.31;5073625;28;20033;-68
2022/07/26 10:50:48;;;;;;;8.90;2.00;;;;;;;23.90;51.45;101953.06;5073799;28;20056;-68
2022/07/26 10:53:24;;;;;;;9.75;1.90;;;;;;;22.94;53.06;101946.25;5073445;28;20066;-69
2022/07/26 10:55:50;;;;;;;9.00;1.90;;;;;;;22.88;53.92;101947.88;5073743;28;20029;-69
2022/07/26 10:58:16;;;;;;;11.40;1.83;;;;;;;23.52;51.88;101940.69;5073704;28;20024;-68
2022/07/26 11:00:57;;;;;;;6.40;1.50;;;;;;;24.82;47.69;101943.56;5073577;28;20028;-70
2022/07/26 11:03:22;;;;;;;7.60;1.70;;;;;;;26.31;44.28;101954.03;5073601;28;20032;-68
2022/07/26 11:05:48;;;;;;;5.65;1.58;;;;;;;26.94;40.42;101955.16;5073486;28;20108;-68
2022/07/26 11:08:14;;;;;;;10.90;1.80;;;;;;;26.43;39.96;101956.09;5073873;28;20055;-69
2022/07/26 11:10:46;;;;;;;6.70;1.55;;;;;;;25.21;42.97;101953.84;5073094;28;20462;-69
2022/07/26 11:13:14;;;;;;;8.80;2.30;;;;;;;25.34;43.56;101959.31;5073398;28;20101;-69
2022/07/26 11:15:43;;;;;;;6.32;1.75;;;;;;;26.59;41.08;101961.03;5073341;28;20047;-68
2022/07/26 11:18:11;;;;;;;9.60;1.95;;;;;;;27.65;41.62;101963.16;5074786;28;20070;-70